Time;durP1;ratioP1;P1;durP2;ratioP2;P2;SDS_P1;SDS_P2;PMS_P1;PMS_P2;Temp;Humidity;BMP_temperature;BMP_pressure;BME280_temperature;BME280_humidity;BME280_pressure;Samples;Min_cycle;Max_cycle;Signal;HPM_P1;HPM_P2
2023/09/02 00:01:18;;;;;;;3.65;2.15;;;20.70;74.30;;;;;;5071823;28;20045;-63
2023/09/02 00:03:44;;;;;;;4.30;1.95;;;20.70;74.30;;;;;;5072704;28;20040;-63
2023/09/02 00:06:09;;;;;;;5.85;2.33;;;20.70;74.30;;;;;;5072743;28;20048;-64
2023/09/02 00:08:35;;;;;;;4.88;2.40;;;20.70;74.30;;;;;;5071897;28;20495;-64
2023/09/02 00:11:00;;;;;;;4.88;2.20;;;20.70;74.30;;;;;;5072674;28;20045;-63
2023/09/02 00:13:26;;;;;;;3.85;2.00;;;20.70;74.30;;;;;;5072638;28;20032;-63
2023/09/02 00:15:52;;;;;;;5.10;2.30;;;20.70;74.30;;;;;;5070163;28;20105;-64
2023/09/02 00:18:17;;;;;;;4.78;2.20;;;20.70;74.30;;;;;;5075495;28;20079;-64
2023/09/02 00:20:43;;;;;;;4.18;1.90;;;20.60;74.20;;;;;;5071400;28;20553;-63
2023/09/02 00:23:08;;;;;;;5.28;2.28;;;20.60;74.20;;;;;;5090458;28;20039;-63
2023/09/02 00:25:34;;;;;;;5.47;2.13;;;20.60;74.30;;;;;;5092430;28;20036;-63
2023/09/02 00:27:59;;;;;;;5.05;2.40;;;20.60;74.20;;;;;;5092108;28;20047;-64
2023/09/02 00:30:25;;;;;;;5.05;2.35;;;20.60;74.20;;;;;;5091673;28;20047;-64
2023/09/02 00:32:51;;;;;;;4.30;2.28;;;20.60;74.20;;;;;;5092546;28;20040;-63
2023/09/02 00:35:17;;;;;;;5.18;2.25;;;20.60;74.20;;;;;;5091996;28;20412;-64
2023/09/02 00:37:43;;;;;;;3.05;1.75;;;20.60;74.20;;;;;;5077081;28;20053;-63
2023/09/02 00:40:11;;;;;;;4.78;2.20;;;20.60;74.20;;;;;;5072268;28;20041;-63
2023/09/02 00:42:36;;;;;;;4.20;2.10;;;20.60;74.10;;;;;;5037048;28;20085;-64
2023/09/02 00:45:02;;;;;;;4.22;2.03;;;20.60;74.20;;;;;;5054463;28;20075;-64
2023/09/02 00:47:27;;;;;;;4.38;1.98;;;20.60;74.10;;;;;;5071092;28;20063;-63
2023/09/02 00:49:53;;;;;;;3.97;2.40;;;20.60;74.10;;;;;;5071325;28;20101;-64
2023/09/02 00:52:19;;;;;;;5.05;2.03;;;20.60;74.10;;;;;;5072513;28;20044;-64
2023/09/02 00:54:45;;;;;;;4.47;2.33;;;20.60;74.10;;;;;;5072144;28;20059;-64
2023/09/02 00:57:10;;;;;;;4.25;2.05;;;20.60;74.10;;;;;;5069790;28;20056;-63
2023/09/02 00:59:36;;;;;;;4.63;2.20;;;20.60;74.10;;;;;;5054155;28;20094;-63
2023/09/02 01:02:04;;;;;;;4.75;1.98;;;20.60;74.10;;;;;;5070997;28;20408;-64
2023/09/02 01:04:29;;;;;;;4.25;2.10;;;20.60;74.10;;;;;;5071416;28;20523;-64
2023/09/02 01:06:55;;;;;;;4.65;2.20;;;20.60;74.10;;;;;;5070774;28;20033;-63
2023/09/02 01:09:21;;;;;;;4.72;2.13;;;20.50;74.10;;;;;;5071053;28;20048;-64
2023/09/02 01:11:48;;;;;;;4.50;2.35;;;20.50;74.00;;;;;;5069795;28;20400;-64
2023/09/02 01:14:16;;;;;;;3.80;2.20;;;20.60;74.00;;;;;;5071289;28;20079;-63
2023/09/02 01:16:42;;;;;;;3.28;2.00;;;20.60;74.00;;;;;;5071747;28;20400;-64
2023/09/02 01:19:08;;;;;;;3.65;2.10;;;20.50;74.00;;;;;;5069857;28;20477;-64
2023/09/02 01:22:08;;;;;;;5.05;2.05;;;20.50;74.00;;;;;;5070413;28;20064;-63
2023/09/02 01:25:09;;;;;;;3.92;1.98;;;20.60;73.90;;;;;;5054645;28;20041;-63
2023/09/02 01:27:38;;;;;;;3.20;2.15;;;20.50;74.00;;;;;;5062459;28;20056;-63
2023/09/02 01:30:09;;;;;;;3.10;1.98;;;20.50;74.00;;;;;;5055849;28;20059;-64
2023/09/02 01:32:38;;;;;;;4.20;2.30;;;20.50;73.90;;;;;;5057491;28;20086;-63
2023/09/02 01:35:06;;;;;;;3.80;2.08;;;20.50;73.90;;;;;;5074831;28;20051;-63
2023/09/02 01:37:38;;;;;;;3.30;1.80;;;20.50;73.90;;;;;;5074413;28;20088;-63
2023/09/02 01:40:05;;;;;;;3.58;2.15;;;20.50;73.90;;;;;;5073728;28;20037;-64
2023/09/02 01:42:34;;;;;;;4.03;2.15;;;20.50;73.90;;;;;;5075607;28;20480;-64
2023/09/02 01:45:00;;;;;;;4.00;1.83;;;20.50;73.90;;;;;;5074765;28;20544;-64
2023/09/02 01:47:25;;;;;;;4.03;1.90;;;20.50;73.90;;;;;;5072878;28;20057;-64
2023/09/02 01:49:51;;;;;;;3.47;2.00;;;20.50;73.90;;;;;;5073858;28;20087;-64
2023/09/02 01:52:16;;;;;;;3.10;1.90;;;20.50;73.90;;;;;;5073551;28;20395;-64
2023/09/02 01:54:42;;;;;;;3.90;2.15;;;20.50;73.90;;;;;;5057154;28;20040;-64
2023/09/02 01:57:08;;;;;;;4.25;2.05;;;20.50;73.80;;;;;;5074309;28;20037;-63
2023/09/02 01:59:33;;;;;;;3.65;1.83;;;20.50;73.80;;;;;;5056530;28;20392;-64
2023/09/02 02:02:00;;;;;;;5.90;2.00;;;20.50;73.80;;;;;;5074412;28;20127;-64
2023/09/02 02:04:36;;;;;;;4.85;2.30;;;20.50;73.80;;;;;;5056312;28;20495;-64
2023/09/02 02:07:08;;;;;;;3.72;1.88;;;20.50;73.80;;;;;;5059000;28;20118;-63
2023/09/02 02:09:49;;;;;;;3.25;1.77;;;20.50;73.80;;;;;;5093737;28;20044;-63
2023/09/02 02:12:14;;;;;;;4.35;2.05;;;20.40;73.70;;;;;;5078496;28;20062;-63
2023/09/02 02:14:40;;;;;;;4.88;2.40;;;20.50;73.80;;;;;;5072738;28;20074;-64
2023/09/02 02:17:06;;;;;;;3.92;2.17;;;20.40;73.80;;;;;;5073881;28;20045;-64
2023/09/02 02:19:32;;;;;;;3.70;1.98;;;20.40;73.80;;;;;;5074973;28;20089;-63
2023/09/02 02:22:00;;;;;;;3.97;1.90;;;20.50;73.80;;;;;;5072511;28;20044;-63
2023/09/02 02:24:26;;;;;;;3.20;1.85;;;20.40;73.80;;;;;;5075070;28;20068;-64
2023/09/02 02:26:52;;;;;;;3.38;2.17;;;20.40;73.80;;;;;;5083387;28;20079;-63
2023/09/02 02:29:18;;;;;;;3.22;2.08;;;20.40;73.80;;;;;;5094547;28;20107;-63
2023/09/02 02:31:43;;;;;;;3.58;1.90;;;20.40;73.80;;;;;;5094483;28;20122;-63
2023/09/02 02:34:09;;;;;;;2.85;2.00;;;20.40;73.80;;;;;;5094501;28;20036;-63
2023/09/02 02:36:34;;;;;;;3.67;2.20;;;20.40;73.80;;;;;;5092995;28;20056;-63
2023/09/02 02:39:02;;;;;;;2.95;2.05;;;20.40;73.80;;;;;;5094862;28;20048;-64
2023/09/02 02:41:28;;;;;;;3.75;2.00;;;20.40;73.80;;;;;;5092158;28;20411;-63
2023/09/02 02:43:53;;;;;;;5.22;2.30;;;20.40;73.80;;;;;;5094694;28;20040;-63
2023/09/02 02:46:19;;;;;;;3.13;1.92;;;20.40;73.80;;;;;;5094547;28;20040;-63
2023/09/02 02:48:44;;;;;;;4.13;2.00;;;20.40;73.80;;;;;;5092194;28;20048;-63
2023/09/02 02:51:10;;;;;;;2.67;2.13;;;20.40;73.80;;;;;;5093922;28;20446;-63
2023/09/02 02:53:36;;;;;;;4.18;1.90;;;20.40;73.80;;;;;;5094106;28;20043;-63
2023/09/02 02:56:02;;;;;;;3.33;2.13;;;20.40;73.70;;;;;;5092547;28;20058;-63
2023/09/02 02:58:32;;;;;;;3.38;1.95;;;20.40;73.80;;;;;;5094586;28;20119;-63
2023/09/02 03:01:05;;;;;;;3.22;1.83;;;20.40;73.80;;;;;;5092915;28;20051;-66
2023/09/02 03:03:31;;;;;;;6.07;2.00;;;20.40;73.70;;;;;;5093527;28;20044;-63
2023/09/02 03:06:01;;;;;;;2.67;2.00;;;20.40;73.70;;;;;;5093952;28;20044;-63
2023/09/02 03:08:26;;;;;;;3.60;2.03;;;20.40;73.70;;;;;;5093113;28;20040;-63
2023/09/02 03:10:59;;;;;;;3.17;2.03;;;20.40;73.70;;;;;;5091808;28;20094;-63
2023/09/02 03:13:25;;;;;;;3.00;2.00;;;20.40;73.70;;;;;;5094348;28;20130;-63
2023/09/02 03:15:53;;;;;;;3.88;2.10;;;20.40;73.70;;;;;;5093801;28;20119;-63
2023/09/02 03:18:19;;;;;;;3.17;1.83;;;20.40;73.70;;;;;;5093582;28;20048;-63
2023/09/02 03:20:45;;;;;;;3.00;1.80;;;20.40;73.70;;;;;;5093222;28;20127;-63
2023/09/02 03:23:11;;;;;;;4.13;2.10;;;20.40;73.70;;;;;;5093723;28;20124;-63
2023/09/02 03:25:37;;;;;;;3.22;2.20;;;20.40;73.70;;;;;;5091418;28;20150;-63
2023/09/02 03:28:03;;;;;;;5.18;2.40;;;20.40;73.70;;;;;;5092490;28;20085;-63
2023/09/02 03:30:29;;;;;;;3.75;2.10;;;20.40;73.70;;;;;;5082786;28;20040;-63
2023/09/02 03:32:54;;;;;;;2.80;1.90;;;20.40;73.70;;;;;;5070270;28;20488;-63
2023/09/02 03:35:20;;;;;;;3.42;1.88;;;20.30;73.70;;;;;;5072995;28;20131;-64
2023/09/02 03:37:46;;;;;;;2.85;1.83;;;20.30;73.70;;;;;;5072250;28;20048;-63
2023/09/02 03:40:11;;;;;;;4.72;2.25;;;20.30;73.60;;;;;;5073393;28;20036;-64
2023/09/02 03:42:37;;;;;;;4.60;2.22;;;20.40;73.70;;;;;;5073049;28;20052;-64
2023/09/02 03:45:03;;;;;;;3.72;2.00;;;20.40;73.70;;;;;;5072474;28;20089;-63
2023/09/02 03:47:32;;;;;;;4.32;2.30;;;20.30;73.60;;;;;;5073107;28;20491;-63
2023/09/02 03:49:58;;;;;;;3.28;2.08;;;20.40;73.70;;;;;;5072655;28;20041;-63
2023/09/02 03:52:24;;;;;;;2.92;2.00;;;20.30;73.60;;;;;;5071411;28;20036;-63
2023/09/02 03:54:50;;;;;;;4.45;2.42;;;20.30;73.60;;;;;;5073001;28;20089;-64
2023/09/02 03:57:15;;;;;;;3.15;2.28;;;20.30;73.60;;;;;;5072852;28;20048;-64
2023/09/02 03:59:41;;;;;;;3.58;2.17;;;20.30;73.60;;;;;;5071687;28;20047;-63
2023/09/02 04:02:07;;;;;;;4.03;2.00;;;20.30;73.60;;;;;;5086832;28;20048;-63
2023/09/02 04:04:33;;;;;;;2.65;1.80;;;20.30;73.60;;;;;;5092096;28;20548;-63
2023/09/02 04:06:58;;;;;;;3.33;2.30;;;20.30;73.60;;;;;;5091001;28;20130;-63
2023/09/02 04:09:24;;;;;;;2.70;2.00;;;20.30;73.60;;;;;;5093017;28;20471;-63
2023/09/02 04:11:50;;;;;;;4.72;2.38;;;20.30;73.60;;;;;;5090515;28;20050;-63
2023/09/02 04:14:15;;;;;;;3.42;2.08;;;20.30;73.60;;;;;;5092498;28;20047;-63
2023/09/02 04:16:41;;;;;;;4.25;2.15;;;20.30;73.50;;;;;;5092571;28;20040;-63
2023/09/02 04:19:06;;;;;;;4.70;2.00;;;20.30;73.50;;;;;;5091656;28;20040;-63
2023/09/02 04:21:32;;;;;;;4.13;2.03;;;20.30;73.50;;;;;;5091155;28;20044;-63
2023/09/02 04:23:57;;;;;;;2.33;1.70;;;20.30;73.50;;;;;;5092759;28;20458;-63
2023/09/02 04:26:23;;;;;;;3.88;2.15;;;20.30;74.10;;;;;;5092813;28;20040;-63
2023/09/02 04:28:49;;;;;;;3.38;2.10;;;20.30;73.60;;;;;;5092094;28;20036;-63
2023/09/02 04:31:15;;;;;;;3.58;2.00;;;20.30;73.60;;;;;;5093163;28;20076;-63
2023/09/02 04:33:40;;;;;;;5.22;2.30;;;20.30;73.60;;;;;;5092236;28;20087;-63
2023/09/02 04:36:06;;;;;;;3.17;1.98;;;20.30;73.50;;;;;;5091488;28;20064;-63
2023/09/02 04:38:32;;;;;;;3.88;2.20;;;20.30;74.10;;;;;;5093075;28;20048;-63
2023/09/02 04:41:01;;;;;;;3.45;2.20;;;20.30;73.60;;;;;;5091583;28;20475;-63
2023/09/02 04:43:27;;;;;;;3.35;2.20;;;20.30;73.60;;;;;;5091156;28;20079;-63
2023/09/02 04:45:52;;;;;;;3.30;2.03;;;20.30;73.60;;;;;;5092606;28;20039;-63
2023/09/02 04:48:18;;;;;;;4.25;2.00;;;20.30;73.60;;;;;;5091227;28;20455;-63
2023/09/02 04:50:50;;;;;;;3.50;2.05;;;20.30;73.60;;;;;;5092306;28;20048;-63
2023/09/02 04:53:16;;;;;;;3.30;2.30;;;20.30;73.50;;;;;;5091267;28;20040;-63
2023/09/02 04:55:42;;;;;;;2.88;1.98;;;20.30;73.60;;;;;;5091633;28;20051;-64
2023/09/02 04:58:07;;;;;;;3.17;1.77;;;20.30;73.60;;;;;;5092785;28;20032;-63
2023/09/02 05:00:33;;;;;;;3.20;2.35;;;20.30;73.50;;;;;;5092389;28;20487;-64
2023/09/02 05:03:00;;;;;;;2.63;2.03;;;20.30;73.50;;;;;;5091286;28;20503;-63
2023/09/02 05:05:27;;;;;;;3.40;1.90;;;20.20;73.50;;;;;;5096658;28;20495;-63
2023/09/02 05:07:56;;;;;;;4.43;2.30;;;20.30;73.60;;;;;;5096330;28;20455;-63
2023/09/02 05:10:22;;;;;;;2.88;2.05;;;20.20;73.50;;;;;;5095985;28;20052;-63
2023/09/02 05:12:47;;;;;;;2.60;1.90;;;20.20;73.50;;;;;;5095978;28;20046;-63
2023/09/02 05:15:13;;;;;;;2.53;1.90;;;20.20;73.50;;;;;;5096584;28;20415;-64
2023/09/02 05:17:39;;;;;;;5.45;2.30;;;20.20;73.50;;;;;;5095423;28;20072;-64
2023/09/02 05:20:05;;;;;;;2.85;2.10;;;20.20;73.40;;;;;;5096215;28;20149;-63
2023/09/02 05:22:31;;;;;;;3.40;2.28;;;20.20;73.50;;;;;;5096182;28;20036;-63
2023/09/02 05:24:57;;;;;;;2.85;2.05;;;20.20;73.50;;;;;;5095115;28;20046;-63
2023/09/02 05:27:22;;;;;;;2.92;2.00;;;20.20;73.50;;;;;;5095069;28;20043;-63
2023/09/02 05:29:48;;;;;;;2.97;2.17;;;20.20;73.40;;;;;;5095442;28;20119;-63
2023/09/02 05:32:14;;;;;;;3.10;1.90;;;20.20;73.50;;;;;;5095076;28;20433;-63
2023/09/02 05:34:43;;;;;;;3.03;2.22;;;20.20;73.50;;;;;;5094668;28;20080;-63
2023/09/02 05:37:09;;;;;;;2.83;1.90;;;20.20;73.50;;;;;;5095073;28;20056;-63
2023/09/02 05:39:34;;;;;;;4.25;2.40;;;20.20;73.50;;;;;;5094657;28;20048;-63
2023/09/02 05:42:00;;;;;;;3.55;2.22;;;20.20;73.50;;;;;;5095991;28;20051;-63
2023/09/02 05:44:25;;;;;;;3.25;2.20;;;20.20;73.50;;;;;;5094979;28;20040;-63
2023/09/02 05:46:51;;;;;;;3.03;2.30;;;20.20;73.50;;;;;;5094091;28;20060;-63
2023/09/02 05:49:16;;;;;;;2.70;1.90;;;20.20;73.50;;;;;;5096056;28;20115;-63
2023/09/02 05:51:42;;;;;;;4.20;2.35;;;20.20;73.50;;;;;;5094388;28;20039;-63
2023/09/02 05:54:09;;;;;;;2.75;1.98;;;20.20;73.50;;;;;;5095874;28;20040;-63
2023/09/02 05:56:38;;;;;;;2.60;1.80;;;20.20;73.50;;;;;;5093540;28;20052;-63
2023/09/02 05:59:04;;;;;;;3.08;2.08;;;20.20;73.50;;;;;;5094727;28;20047;-63
2023/09/02 06:01:30;;;;;;;3.55;1.95;;;20.20;73.50;;;;;;5095306;28;20040;-63
2023/09/02 06:03:55;;;;;;;2.50;2.00;;;20.20;73.50;;;;;;5088415;28;20036;-63
2023/09/02 06:06:21;;;;;;;2.63;1.92;;;20.20;73.50;;;;;;5077168;28;20109;-63
2023/09/02 06:08:48;;;;;;;3.22;2.10;;;20.20;73.40;;;;;;5094682;28;20056;-63
2023/09/02 06:11:16;;;;;;;3.58;2.55;;;20.20;73.50;;;;;;5094671;28;20136;-64
2023/09/02 06:13:41;;;;;;;2.60;1.98;;;20.20;73.50;;;;;;5094154;28;20105;-62
2023/09/02 06:16:07;;;;;;;3.35;2.08;;;20.20;73.50;;;;;;5092789;28;20479;-63
2023/09/02 06:18:33;;;;;;;2.60;2.00;;;20.20;73.50;;;;;;5081400;28;20426;-63
2023/09/02 06:20:59;;;;;;;3.22;2.03;;;20.20;73.60;;;;;;5093960;28;20044;-63
2023/09/02 06:23:25;;;;;;;2.60;1.90;;;20.20;73.60;;;;;;5094400;28;20498;-63
2023/09/02 06:25:57;;;;;;;4.07;2.38;;;20.20;73.60;;;;;;5094528;28;20044;-63
2023/09/02 06:28:24;;;;;;;8.02;2.60;;;20.20;73.60;;;;;;5092107;28;20087;-64
2023/09/02 06:30:49;;;;;;;4.53;2.72;;;20.20;73.70;;;;;;5095018;28;20086;-72
2023/09/02 06:33:16;;;;;;;3.10;2.40;;;20.20;73.70;;;;;;5094919;28;20075;-62
2023/09/02 06:35:42;;;;;;;4.03;2.90;;;20.20;73.80;;;;;;5092556;28;20048;-63
2023/09/02 06:38:07;;;;;;;6.55;2.78;;;20.20;73.80;;;;;;5093465;28;20055;-62
2023/09/02 06:40:33;;;;;;;7.65;2.85;;;20.20;73.90;;;;;;5094003;28;20062;-62
2023/09/02 06:42:58;;;;;;;6.38;2.65;;;20.20;74.00;;;;;;5094784;28;20036;-62
2023/09/02 06:45:27;;;;;;;7.50;2.97;;;20.30;74.10;;;;;;5094864;28;20082;-63
2023/09/02 06:47:53;;;;;;;5.95;2.22;;;20.30;74.10;;;;;;5093645;28;20048;-63
2023/09/02 06:50:18;;;;;;;3.92;2.30;;;20.30;74.10;;;;;;5092926;28;20423;-63
2023/09/02 06:52:44;;;;;;;5.80;2.17;;;20.30;74.10;;;;;;5094108;28;20044;-63
2023/09/02 06:55:09;;;;;;;2.70;2.13;;;20.30;74.10;;;;;;5092669;28;20097;-63
2023/09/02 06:57:39;;;;;;;8.63;2.33;;;20.30;74.10;;;;;;5093616;28;20569;-62
2023/09/02 07:00:05;;;;;;;6.82;2.28;;;20.30;74.10;;;;;;5110507;28;20044;-63
2023/09/02 07:02:31;;;;;;;4.00;2.33;;;20.30;74.10;;;;;;5093786;28;20044;-62
2023/09/02 07:04:56;;;;;;;3.53;2.28;;;20.30;74.10;;;;;;5093417;28;20158;-62
2023/09/02 07:07:22;;;;;;;4.82;2.00;;;20.30;74.20;;;;;;5094315;28;20044;-63
2023/09/02 07:09:47;;;;;;;5.72;2.67;;;20.30;74.20;;;;;;5091967;28;20414;-61
2023/09/02 07:12:15;;;;;;;4.93;2.58;;;20.30;74.20;;;;;;5093073;28;20116;-62
2023/09/02 07:14:40;;;;;;;9.57;2.17;;;20.30;74.20;;;;;;5091803;28;20119;-61
2023/09/02 07:17:06;;;;;;;12.93;2.72;;;20.30;74.30;;;;;;5092757;28;20128;-61
2023/09/02 07:19:31;;;;;;;7.72;2.20;;;20.30;74.40;;;;;;5093971;28;20082;-60
2023/09/02 07:21:57;;;;;;;5.35;2.47;;;20.40;74.40;;;;;;5092087;28;20044;-61
2023/09/02 07:24:23;;;;;;;5.88;2.30;;;20.30;74.50;;;;;;5093165;28;20044;-62
2023/09/02 07:26:48;;;;;;;8.18;2.92;;;20.30;74.60;;;;;;5091335;28;20076;-62
2023/09/02 07:29:14;;;;;;;5.03;2.40;;;20.40;74.70;;;;;;5092077;28;20103;-62
2023/09/02 07:31:40;;;;;;;4.03;2.15;;;20.40;74.70;;;;;;5092598;28;20044;-61
2023/09/02 07:34:05;;;;;;;6.13;2.50;;;20.30;74.70;;;;;;5092523;28;20036;-61
2023/09/02 07:36:31;;;;;;;6.20;2.50;;;20.30;74.70;;;;;;5091607;28;20067;-62
2023/09/02 07:38:57;;;;;;;8.68;2.30;;;20.40;74.70;;;;;;5092179;28;20498;-62
2023/09/02 07:41:22;;;;;;;3.88;2.35;;;20.40;74.80;;;;;;5093390;28;20036;-61
2023/09/02 07:43:48;;;;;;;5.00;2.15;;;20.40;74.80;;;;;;5092292;28;20552;-62
2023/09/02 07:46:13;;;;;;;9.02;3.45;;;20.40;74.90;;;;;;5093761;28;20052;-61
2023/09/02 07:48:39;;;;;;;5.18;2.28;;;20.40;75.00;;;;;;5092231;28;20047;-62
2023/09/02 07:51:04;;;;;;;5.63;2.28;;;20.40;74.90;;;;;;5091576;28;20894;-61
2023/09/02 07:53:30;;;;;;;5.70;2.70;;;20.40;75.60;;;;;;5093065;28;20424;-62
2023/09/02 07:55:56;;;;;;;4.40;2.13;;;20.40;75.00;;;;;;5092858;28;20047;-62
2023/09/02 07:58:21;;;;;;;5.50;2.40;;;20.40;75.00;;;;;;5091165;28;20123;-62
2023/09/02 08:00:47;;;;;;;6.05;2.58;;;20.40;75.00;;;;;;5092876;28;20036;-62
2023/09/02 08:03:12;;;;;;;4.47;2.38;;;20.40;75.00;;;;;;5092898;28;20178;-62
2023/09/02 08:05:41;;;;;;;5.20;2.22;;;20.50;75.10;;;;;;5091208;28;20040;-61
2023/09/02 08:08:07;;;;;;;10.45;3.58;;;20.50;75.10;;;;;;5092210;28;20048;-62
2023/09/02 08:10:33;;;;;;;5.60;2.30;;;20.50;75.20;;;;;;5092632;28;20149;-62
2023/09/02 08:12:59;;;;;;;6.85;2.15;;;20.40;75.10;;;;;;5092542;28;20155;-62
2023/09/02 08:15:25;;;;;;;5.82;2.17;;;20.50;75.20;;;;;;5092933;28;20127;-63
2023/09/02 08:17:51;;;;;;;5.53;2.65;;;20.40;75.10;;;;;;5089125;28;20518;-61
2023/09/02 08:20:16;;;;;;;3.70;2.33;;;20.50;75.20;;;;;;5091850;28;20047;-61
2023/09/02 08:22:43;;;;;;;3.83;2.25;;;20.50;75.20;;;;;;5090817;28;20040;-61
2023/09/02 08:25:09;;;;;;;6.63;2.45;;;20.50;75.20;;;;;;5092782;28;20051;-60
2023/09/02 08:27:35;;;;;;;3.83;2.65;;;20.50;75.30;;;;;;5091800;28;20043;-61
2023/09/02 08:30:01;;;;;;;3.83;2.40;;;20.50;75.30;;;;;;5091315;28;20040;-61
2023/09/02 08:32:33;;;;;;;5.07;2.35;;;20.50;75.30;;;;;;5092336;28;20044;-61
2023/09/02 08:34:59;;;;;;;7.20;2.30;;;20.50;75.30;;;;;;5091720;28;20048;-60
2023/09/02 08:37:24;;;;;;;4.13;2.20;;;20.50;75.30;;;;;;5091930;28;20052;-61
2023/09/02 08:39:53;;;;;;;3.88;2.65;;;20.50;75.30;;;;;;5091767;28;20040;-62
2023/09/02 08:42:19;;;;;;;4.30;2.63;;;20.50;75.20;;;;;;5091379;28;20036;-62
2023/09/02 08:44:46;;;;;;;4.85;2.40;;;20.50;75.20;;;;;;5091253;28;20109;-64
2023/09/02 08:47:11;;;;;;;5.05;2.45;;;20.50;75.20;;;;;;5091685;28;20051;-61
2023/09/02 08:49:37;;;;;;;9.82;3.08;;;20.50;75.10;;;;;;5091699;28;20036;-63
2023/09/02 08:52:05;;;;;;;8.70;2.88;;;20.50;75.20;;;;;;5068548;28;20063;-61
2023/09/02 08:54:30;;;;;;;9.65;3.58;;;20.50;75.20;;;;;;5073822;28;20036;-60
2023/09/02 08:56:57;;;;;;;5.20;2.63;;;20.50;75.40;;;;;;5090652;28;20040;-60
2023/09/02 08:59:24;;;;;;;6.53;3.03;;;20.50;75.50;;;;;;5090943;28;20047;-60
2023/09/02 09:01:50;;;;;;;8.80;2.70;;;20.50;75.60;;;;;;5089717;28;20490;-60
2023/09/02 09:04:16;;;;;;;4.65;2.75;;;20.50;75.60;;;;;;5090707;28;20512;-60
2023/09/02 09:06:41;;;;;;;7.90;2.92;;;20.50;75.60;;;;;;5073830;28;20093;-61
2023/09/02 09:09:10;;;;;;;6.32;2.80;;;20.50;75.60;;;;;;5091548;28;20119;-60
2023/09/02 09:11:37;;;;;;;6.82;2.90;;;20.50;75.70;;;;;;5090437;28;20040;-61
2023/09/02 09:14:03;;;;;;;6.13;2.92;;;20.50;75.70;;;;;;5074436;28;20040;-60
2023/09/02 09:16:33;;;;;;;10.70;2.88;;;20.50;75.70;;;;;;5056423;28;20059;-61
2023/09/02 09:19:00;;;;;;;7.13;2.75;;;20.60;75.80;;;;;;5090899;28;20044;-60
2023/09/02 09:21:25;;;;;;;8.75;2.90;;;20.50;75.80;;;;;;5091483;28;20059;-60
2023/09/02 09:23:51;;;;;;;7.60;2.75;;;20.50;75.80;;;;;;5091038;28;20039;-60
2023/09/02 09:26:18;;;;;;;6.32;2.97;;;20.60;75.80;;;;;;5092010;28;20072;-60
2023/09/02 09:28:51;;;;;;;6.30;2.97;;;20.50;75.80;;;;;;5090611;28;20040;-60
2023/09/02 09:31:16;;;;;;;8.38;3.00;;;20.60;75.90;;;;;;5091411;28;20078;-61
2023/09/02 09:33:53;;;;;;;4.85;2.60;;;20.60;75.90;;;;;;5092039;28;20071;-60
2023/09/02 09:36:21;;;;;;;6.97;3.28;;;20.60;75.90;;;;;;5090851;28;20487;-61
2023/09/02 09:39:07;;;;;;;;;;;20.50;75.90;;;;;;5090485;28;20052;-60
2023/09/02 09:41:33;;;;;;;12.95;2.95;;;20.50;75.80;;;;;;5123683;28;20012;-61
2023/09/02 09:44:05;;;;;;;5.90;2.40;;;20.50;75.90;;;;;;5091271;28;20040;-61
2023/09/02 09:46:42;;;;;;;6.65;2.72;;;20.60;75.90;;;;;;5091657;28;20040;-61
2023/09/02 09:49:08;;;;;;;7.30;2.80;;;20.60;75.90;;;;;;5090687;28;20055;-60
2023/09/02 09:51:33;;;;;;;6.60;2.85;;;20.60;75.90;;;;;;5092036;28;20048;-61
2023/09/02 09:53:59;;;;;;;4.78;2.30;;;20.60;76.00;;;;;;5094427;28;20381;-61
2023/09/02 09:56:25;;;;;;;6.55;3.00;;;20.60;76.00;;;;;;5088229;28;20141;-61
2023/09/02 09:58:50;;;;;;;7.32;2.75;;;20.60;75.90;;;;;;5093124;28;20406;-61
2023/09/02 10:01:21;;;;;;;7.85;3.22;;;20.60;75.90;;;;;;5095167;28;20044;-61
2023/09/02 10:03:46;;;;;;;8.40;3.10;;;20.60;75.90;;;;;;5075520;28;20049;-61
2023/09/02 10:06:12;;;;;;;5.45;2.60;;;20.60;76.00;;;;;;5056050;28;20077;-61
2023/09/02 10:08:53;;;;;;;7.55;2.90;;;20.60;76.00;;;;;;5091060;28;20040;-60
2023/09/02 10:11:22;;;;;;;7.80;3.05;;;20.70;76.10;;;;;;5093642;28;20044;-60
2023/09/02 10:13:52;;;;;;;9.63;3.30;;;20.70;76.10;;;;;;5093952;28;20055;-60
2023/09/02 10:16:18;;;;;;;6.95;3.00;;;20.70;76.00;;;;;;5094973;28;20044;-61
2023/09/02 10:18:46;;;;;;;6.32;2.80;;;20.70;76.00;;;;;;5094223;28;20043;-61
2023/09/02 10:21:11;;;;;;;6.55;3.30;;;20.70;76.00;;;;;;5093997;28;20488;-61
2023/09/02 10:23:37;;;;;;;9.02;3.72;;;20.70;76.00;;;;;;5072948;28;20051;-61
2023/09/02 10:26:06;;;;;;;7.97;3.03;;;20.70;76.00;;;;;;5072441;28;20468;-61
2023/09/02 10:28:39;;;;;;;7.93;3.03;;;20.70;76.00;;;;;;5089399;28;20047;-61
2023/09/02 10:31:12;;;;;;;6.85;2.75;;;20.70;76.00;;;;;;5095184;28;20054;-61
2023/09/02 10:34:07;;;;;;;7.93;3.08;;;20.70;76.10;;;;;;5092405;28;20372;-61
2023/09/02 10:36:33;;;;;;;7.00;3.10;;;20.80;76.10;;;;;;5091037;28;20087;-61
2023/09/02 10:39:02;;;;;;;6.85;2.95;;;20.70;76.00;;;;;;5093426;28;20048;-61
2023/09/02 10:41:27;;;;;;;6.75;3.03;;;20.80;76.00;;;;;;5094412;28;20087;-61
2023/09/02 10:43:53;;;;;;;9.38;3.45;;;20.80;76.00;;;;;;5075971;28;20084;-61
2023/09/02 10:46:18;;;;;;;5.88;2.78;;;20.80;76.00;;;;;;5092709;28;20520;-62
2023/09/02 10:48:44;;;;;;;7.75;3.45;;;20.80;76.00;;;;;;5091429;28;20123;-61
2023/09/02 10:51:10;;;;;;;7.32;3.00;;;20.80;76.00;;;;;;5094542;28;20075;-61
2023/09/02 10:53:47;;;;;;;6.75;3.15;;;20.80;75.90;;;;;;5092825;28;20086;-61
2023/09/02 10:56:30;;;;;;;7.57;3.53;;;20.90;75.80;;;;;;5093601;28;20135;-61
2023/09/02 10:58:57;;;;;;;5.70;3.00;;;20.90;75.70;;;;;;5094120;28;20048;-60
2023/09/02 11:01:23;;;;;;;8.13;3.40;;;20.90;75.70;;;;;;5093391;28;20051;-61
2023/09/02 11:03:51;;;;;;;8.05;3.60;;;20.90;75.70;;;;;;5076223;28;20085;-61
2023/09/02 11:06:17;;;;;;;8.70;3.22;;;20.90;75.80;;;;;;5094679;28;20098;-60
2023/09/02 11:08:46;;;;;;;9.63;3.47;;;20.90;75.70;;;;;;5091667;28;20105;-60
2023/09/02 11:11:12;;;;;;;7.32;3.20;;;20.90;75.60;;;;;;5094395;28;20483;-61
2023/09/02 11:14:06;;;;;;;12.00;3.60;;;20.90;75.50;;;;;;5094109;28;20036;-61
2023/09/02 11:16:32;;;;;;;8.73;3.22;;;21.00;75.50;;;;;;5093494;28;20090;-61
2023/09/02 11:19:00;;;;;;;9.25;3.17;;;21.00;75.50;;;;;;5092760;28;20040;-61
2023/09/02 11:21:39;;;;;;;7.78;3.40;;;21.00;75.50;;;;;;5092572;28;20138;-61
2023/09/02 11:24:17;;;;;;;9.98;4.13;;;21.00;75.50;;;;;;5093607;28;20502;-61
2023/09/02 11:26:55;;;;;;;14.15;4.20;;;21.00;76.10;;;;;;5093872;28;20044;-60
2023/09/02 11:29:22;;;;;;;10.10;4.40;;;21.00;75.50;;;;;;5092289;28;20043;-57
2023/09/02 11:32:00;;;;;;;10.88;4.68;;;21.00;75.60;;;;;;5093464;28;20102;-57
2023/09/02 11:34:26;;;;;;;;;;;21.00;75.60;;;;;;5094499;28;20036;-57
2023/09/02 11:36:56;;;;;;;14.65;5.30;;;21.00;75.50;;;;;;5091712;28;19921;-57
2023/09/02 11:39:28;;;;;;;14.20;5.13;;;21.00;75.50;;;;;;5094070;28;20048;-57
2023/09/02 11:42:12;;;;;;;14.30;5.85;;;21.00;75.50;;;;;;5093336;28;20499;-57
2023/09/02 11:44:38;;;;;;;13.43;5.38;;;21.00;75.40;;;;;;5092564;28;20036;-57
2023/09/02 11:47:03;;;;;;;14.95;4.95;;;21.10;75.50;;;;;;5093630;28;20047;-57
2023/09/02 11:49:29;;;;;;;13.02;5.53;;;21.10;75.40;;;;;;5093580;28;20466;-56
2023/09/02 11:51:55;;;;;;;14.27;5.22;;;21.10;75.40;;;;;;5092373;28;20441;-57
2023/09/02 11:54:21;;;;;;;14.07;5.30;;;21.10;75.30;;;;;;5093405;28;20040;-57
2023/09/02 11:57:00;;;;;;;14.50;6.03;;;21.20;75.30;;;;;;5092291;28;20032;-56
2023/09/02 11:59:26;;;;;;;10.45;5.15;;;21.20;75.30;;;;;;5086722;28;20166;-55
2023/09/02 12:02:11;;;;;;;11.80;4.72;;;21.20;75.20;;;;;;5083127;28;20052;-56
2023/09/02 12:04:37;;;;;;;11.70;4.47;;;21.20;75.10;;;;;;5090737;28;20057;-55
2023/09/02 12:07:04;;;;;;;10.10;4.78;;;21.20;75.10;;;;;;5082429;28;20076;-56
2023/09/02 12:09:30;;;;;;;9.75;4.47;;;21.30;75.10;;;;;;5082919;28;20044;-56
2023/09/02 12:11:57;;;;;;;10.50;4.90;;;21.30;75.00;;;;;;5091518;28;20046;-56
2023/09/02 12:14:22;;;;;;;11.20;4.65;;;21.30;75.00;;;;;;5091871;28;20046;-55
2023/09/02 12:16:48;;;;;;;10.23;4.65;;;21.30;75.00;;;;;;5082773;28;20032;-56
2023/09/02 12:19:13;;;;;;;10.68;4.70;;;21.30;74.90;;;;;;5091591;28;20044;-55
2023/09/02 12:21:39;;;;;;;12.15;5.18;;;21.30;74.90;;;;;;5090979;28;20518;-56
2023/09/02 12:24:05;;;;;;;12.70;4.50;;;21.30;74.90;;;;;;5091398;28;20050;-56
2023/09/02 12:26:31;;;;;;;10.25;4.40;;;21.30;74.90;;;;;;5089585;28;20127;-58
2023/09/02 12:28:56;;;;;;;10.35;4.40;;;21.40;74.90;;;;;;5085084;28;20043;-61
2023/09/02 12:31:22;;;;;;;13.25;4.38;;;21.40;74.90;;;;;;5091798;28;20043;-60
2023/09/02 12:33:51;;;;;;;7.65;4.47;;;21.40;74.80;;;;;;5091220;28;20040;-60
2023/09/02 12:36:18;;;;;;;9.50;4.70;;;21.40;74.70;;;;;;5092094;28;20088;-60
2023/09/02 12:38:53;;;;;;;10.60;4.95;;;21.40;74.60;;;;;;5082654;28;20043;-67
2023/09/02 12:41:18;;;;;;;10.02;4.53;;;21.40;74.60;;;;;;5091445;28;20048;-67
2023/09/02 12:43:44;;;;;;;10.38;4.80;;;21.40;74.90;;;;;;5091258;28;20067;-67
2023/09/02 12:46:09;;;;;;;10.65;4.18;;;21.40;74.60;;;;;;5092215;28;20119;-66